sensor_id;sensor_type;location;lat;lon;timestamp;P1;durP1;ratioP1;P2;durP2;ratioP2
57826;SDS011;43656;57.746;11.780;2023-07-28T00:02:13;7.07;;;2.85;;
57826;SDS011;43656;57.746;11.780;2023-07-28T00:04:39;3.67;;;2.50;;
57826;SDS011;43656;57.746;11.780;2023-07-28T00:07:04;9.75;;;2.55;;
57826;SDS011;43656;57.746;11.780;2023-07-28T00:09:30;7.07;;;3.30;;
57826;SDS011;43656;57.746;11.780;2023-07-28T00:11:57;6.70;;;3.10;;
57826;SDS011;43656;57.746;11.780;2023-07-28T00:14:23;5.22;;;2.70;;
57826;SDS011;43656;57.746;11.780;2023-07-28T00:16:50;6.25;;;2.80;;
57826;SDS011;43656;57.746;11.780;2023-07-28T00:19:16;4.82;;;3.25;;
57826;SDS011;43656;57.746;11.780;2023-07-28T00:21:41;8.93;;;2.88;;
57826;SDS011;43656;57.746;11.780;2023-07-28T00:24:06;5.32;;;2.70;;
57826;SDS011;43656;57.746;11.780;2023-07-28T00:26:32;3.97;;;2.80;;
57826;SDS011;43656;57.746;11.780;2023-07-28T00:28:57;5.60;;;2.95;;
57826;SDS011;43656;57.746;11.780;2023-07-28T00:31:24;5.40;;;3.05;;
57826;SDS011;43656;57.746;11.780;2023-07-28T00:33:49;4.53;;;2.33;;
57826;SDS011;43656;57.746;11.780;2023-07-28T00:36:16;5.00;;;3.00;;
57826;SDS011;43656;57.746;11.780;2023-07-28T00:38:41;6.00;;;2.72;;
57826;SDS011;43656;57.746;11.780;2023-07-28T00:41:07;5.15;;;2.88;;
57826;SDS011;43656;57.746;11.780;2023-07-28T00:43:32;6.90;;;2.90;;
57826;SDS011;43656;57.746;11.780;2023-07-28T00:45:57;5.75;;;2.63;;
57826;SDS011;43656;57.746;11.780;2023-07-28T00:48:23;10.45;;;2.80;;
57826;SDS011;43656;57.746;11.780;2023-07-28T00:50:50;7.28;;;3.00;;
57826;SDS011;43656;57.746;11.780;2023-07-28T00:53:16;7.55;;;3.05;;
57826;SDS011;43656;57.746;11.780;2023-07-28T00:55:42;4.05;;;2.80;;
57826;SDS011;43656;57.746;11.780;2023-07-28T00:58:08;7.32;;;3.03;;
57826;SDS011;43656;57.746;11.780;2023-07-28T01:00:34;6.60;;;2.75;;
57826;SDS011;43656;57.746;11.780;2023-07-28T01:02:59;4.97;;;2.90;;
57826;SDS011;43656;57.746;11.780;2023-07-28T01:05:30;5.60;;;3.20;;
57826;SDS011;43656;57.746;11.780;2023-07-28T01:08:08;5.70;;;2.90;;
57826;SDS011;43656;57.746;11.780;2023-07-28T01:10:41;6.95;;;2.92;;
57826;SDS011;43656;57.746;11.780;2023-07-28T01:13:07;7.07;;;3.03;;
57826;SDS011;43656;57.746;11.780;2023-07-28T01:15:33;10.00;;;3.25;;
57826;SDS011;43656;57.746;11.780;2023-07-28T01:17:58;7.18;;;3.05;;
57826;SDS011;43656;57.746;11.780;2023-07-28T01:20:24;5.07;;;2.90;;
57826;SDS011;43656;57.746;11.780;2023-07-28T01:28:34;6.07;;;3.10;;
57826;SDS011;43656;57.746;11.780;2023-07-28T01:31:04;6.55;;;2.70;;
57826;SDS011;43656;57.746;11.780;2023-07-28T01:33:31;5.55;;;3.00;;
57826;SDS011;43656;57.746;11.780;2023-07-28T01:35:57;7.00;;;3.30;;
57826;SDS011;43656;57.746;11.780;2023-07-28T01:38:24;6.63;;;2.90;;
57826;SDS011;43656;57.746;11.780;2023-07-28T01:40:49;5.18;;;2.80;;
57826;SDS011;43656;57.746;11.780;2023-07-28T01:43:15;5.85;;;2.92;;
57826;SDS011;43656;57.746;11.780;2023-07-28T01:45:40;10.65;;;3.30;;
57826;SDS011;43656;57.746;11.780;2023-07-28T01:48:05;6.47;;;3.20;;
57826;SDS011;43656;57.746;11.780;2023-07-28T01:50:33;5.28;;;2.58;;
57826;SDS011;43656;57.746;11.780;2023-07-28T01:52:58;5.88;;;3.00;;
57826;SDS011;43656;57.746;11.780;2023-07-28T01:55:24;7.78;;;3.30;;
57826;SDS011;43656;57.746;11.780;2023-07-28T01:57:50;4.82;;;2.92;;
57826;SDS011;43656;57.746;11.780;2023-07-28T02:00:19;3.92;;;2.95;;
57826;SDS011;43656;57.746;11.780;2023-07-28T02:02:45;7.03;;;2.70;;
57826;SDS011;43656;57.746;11.780;2023-07-28T02:05:11;4.85;;;2.80;;
57826;SDS011;43656;57.746;11.780;2023-07-28T02:07:36;3.00;;;2.70;;
57826;SDS011;43656;57.746;11.780;2023-07-28T02:10:02;6.30;;;2.85;;
57826;SDS011;43656;57.746;11.780;2023-07-28T02:12:27;8.10;;;2.70;;
57826;SDS011;43656;57.746;11.780;2023-07-28T02:14:53;6.32;;;2.90;;
57826;SDS011;43656;57.746;11.780;2023-07-28T02:17:18;6.47;;;3.17;;
57826;SDS011;43656;57.746;11.780;2023-07-28T02:19:44;4.88;;;2.70;;
57826;SDS011;43656;57.746;11.780;2023-07-28T02:22:09;4.22;;;2.90;;
57826;SDS011;43656;57.746;11.780;2023-07-28T02:24:36;4.53;;;2.75;;
57826;SDS011;43656;57.746;11.780;2023-07-28T02:27:01;5.18;;;2.95;;
57826;SDS011;43656;57.746;11.780;2023-07-28T02:29:27;4.75;;;2.40;;
57826;SDS011;43656;57.746;11.780;2023-07-28T02:31:52;4.57;;;2.35;;
57826;SDS011;43656;57.746;11.780;2023-07-28T02:34:18;5.25;;;2.50;;
57826;SDS011;43656;57.746;11.780;2023-07-28T02:36:43;4.90;;;2.80;;
57826;SDS011;43656;57.746;11.780;2023-07-28T02:39:09;5.00;;;2.40;;
57826;SDS011;43656;57.746;11.780;2023-07-28T02:41:34;5.05;;;2.47;;
57826;SDS011;43656;57.746;11.780;2023-07-28T02:43:59;7.18;;;2.80;;
57826;SDS011;43656;57.746;11.780;2023-07-28T02:46:25;6.68;;;2.10;;
57826;SDS011;43656;57.746;11.780;2023-07-28T02:48:51;6.93;;;2.60;;
57826;SDS011;43656;57.746;11.780;2023-07-28T02:51:16;5.10;;;2.60;;
57826;SDS011;43656;57.746;11.780;2023-07-28T02:53:41;6.38;;;2.83;;
57826;SDS011;43656;57.746;11.780;2023-07-28T02:56:07;5.78;;;2.30;;
57826;SDS011;43656;57.746;11.780;2023-07-28T02:58:32;6.00;;;2.00;;
57826;SDS011;43656;57.746;11.780;2023-07-28T03:00:58;2.78;;;2.08;;
57826;SDS011;43656;57.746;11.780;2023-07-28T03:03:23;2.88;;;2.13;;
57826;SDS011;43656;57.746;11.780;2023-07-28T03:05:51;5.55;;;2.33;;
57826;SDS011;43656;57.746;11.780;2023-07-28T03:08:18;5.43;;;2.10;;
57826;SDS011;43656;57.746;11.780;2023-07-28T03:10:44;5.28;;;2.20;;
57826;SDS011;43656;57.746;11.780;2023-07-28T03:13:10;3.65;;;2.22;;
57826;SDS011;43656;57.746;11.780;2023-07-28T03:15:35;3.55;;;2.53;;
57826;SDS011;43656;57.746;11.780;2023-07-28T03:18:01;4.40;;;2.20;;
57826;SDS011;43656;57.746;11.780;2023-07-28T03:20:26;4.43;;;2.20;;
57826;SDS011;43656;57.746;11.780;2023-07-28T03:22:52;4.05;;;2.50;;
57826;SDS011;43656;57.746;11.780;2023-07-28T03:25:18;4.28;;;2.10;;
57826;SDS011;43656;57.746;11.780;2023-07-28T03:27:43;2.30;;;2.10;;
57826;SDS011;43656;57.746;11.780;2023-07-28T03:30:09;7.85;;;1.95;;
57826;SDS011;43656;57.746;11.780;2023-07-28T03:32:35;8.77;;;2.72;;
57826;SDS011;43656;57.746;11.780;2023-07-28T03:35:01;4.38;;;2.38;;
57826;SDS011;43656;57.746;11.780;2023-07-28T03:37:29;4.70;;;2.00;;
57826;SDS011;43656;57.746;11.780;2023-07-28T03:39:54;8.00;;;2.70;;
57826;SDS011;43656;57.746;11.780;2023-07-28T03:42:20;7.63;;;2.45;;
57826;SDS011;43656;57.746;11.780;2023-07-28T03:44:45;6.00;;;2.50;;
57826;SDS011;43656;57.746;11.780;2023-07-28T03:47:11;3.72;;;2.15;;
57826;SDS011;43656;57.746;11.780;2023-07-28T03:49:36;2.75;;;1.92;;
57826;SDS011;43656;57.746;11.780;2023-07-28T03:52:02;6.13;;;2.05;;
57826;SDS011;43656;57.746;11.780;2023-07-28T03:54:27;2.88;;;2.03;;
57826;SDS011;43656;57.746;11.780;2023-07-28T03:56:52;3.10;;;2.10;;
57826;SDS011;43656;57.746;11.780;2023-07-28T03:59:18;3.38;;;2.10;;
57826;SDS011;43656;57.746;11.780;2023-07-28T04:01:43;3.22;;;2.00;;
57826;SDS011;43656;57.746;11.780;2023-07-28T04:04:09;5.93;;;2.10;;
57826;SDS011;43656;57.746;11.780;2023-07-28T04:06:44;4.13;;;2.20;;
57826;SDS011;43656;57.746;11.780;2023-07-28T04:09:13;2.55;;;1.70;;
57826;SDS011;43656;57.746;11.780;2023-07-28T04:11:39;3.00;;;1.55;;
57826;SDS011;43656;57.746;11.780;2023-07-28T04:14:04;4.45;;;2.30;;
57826;SDS011;43656;57.746;11.780;2023-07-28T04:16:30;2.25;;;1.70;;
57826;SDS011;43656;57.746;11.780;2023-07-28T04:18:56;4.20;;;1.90;;
57826;SDS011;43656;57.746;11.780;2023-07-28T04:21:21;3.53;;;1.95;;
57826;SDS011;43656;57.746;11.780;2023-07-28T04:23:47;4.65;;;2.00;;
57826;SDS011;43656;57.746;11.780;2023-07-28T04:26:12;3.20;;;1.90;;
57826;SDS011;43656;57.746;11.780;2023-07-28T04:28:37;2.92;;;2.00;;
57826;SDS011;43656;57.746;11.780;2023-07-28T04:31:03;3.13;;;1.70;;
57826;SDS011;43656;57.746;11.780;2023-07-28T04:33:28;4.07;;;1.88;;
57826;SDS011;43656;57.746;11.780;2023-07-28T04:35:54;3.28;;;1.92;;
57826;SDS011;43656;57.746;11.780;2023-07-28T04:38:19;4.07;;;1.80;;
57826;SDS011;43656;57.746;11.780;2023-07-28T04:40:44;5.22;;;1.90;;
57826;SDS011;43656;57.746;11.780;2023-07-28T04:43:10;3.50;;;1.95;;
57826;SDS011;43656;57.746;11.780;2023-07-28T04:45:36;2.33;;;1.60;;
57826;SDS011;43656;57.746;11.780;2023-07-28T04:48:01;3.55;;;1.70;;
57826;SDS011;43656;57.746;11.780;2023-07-28T04:50:27;3.58;;;1.60;;
57826;SDS011;43656;57.746;11.780;2023-07-28T04:52:53;2.33;;;1.73;;
57826;SDS011;43656;57.746;11.780;2023-07-28T04:55:19;3.00;;;1.83;;
57826;SDS011;43656;57.746;11.780;2023-07-28T04:57:44;4.20;;;1.77;;
57826;SDS011;43656;57.746;11.780;2023-07-28T05:00:10;5.22;;;1.80;;
57826;SDS011;43656;57.746;11.780;2023-07-28T05:02:36;3.20;;;1.67;;
57826;SDS011;43656;57.746;11.780;2023-07-28T05:05:01;4.18;;;1.50;;
57826;SDS011;43656;57.746;11.780;2023-07-28T05:07:27;2.97;;;1.65;;
57826;SDS011;43656;57.746;11.780;2023-07-28T05:09:55;3.75;;;1.45;;
57826;SDS011;43656;57.746;11.780;2023-07-28T05:12:20;1.95;;;1.52;;
57826;SDS011;43656;57.746;11.780;2023-07-28T05:14:46;4.97;;;1.50;;
57826;SDS011;43656;57.746;11.780;2023-07-28T05:17:11;2.97;;;1.40;;
57826;SDS011;43656;57.746;11.780;2023-07-28T05:19:37;2.05;;;1.25;;
57826;SDS011;43656;57.746;11.780;2023-07-28T05:22:02;2.20;;;1.40;;
57826;SDS011;43656;57.746;11.780;2023-07-28T05:24:28;1.50;;;1.30;;
57826;SDS011;43656;57.746;11.780;2023-07-28T05:26:54;2.45;;;1.20;;
57826;SDS011;43656;57.746;11.780;2023-07-28T05:29:19;3.00;;;1.33;;
57826;SDS011;43656;57.746;11.780;2023-07-28T05:31:45;3.17;;;1.13;;
57826;SDS011;43656;57.746;11.780;2023-07-28T05:34:11;3.83;;;1.08;;
57826;SDS011;43656;57.746;11.780;2023-07-28T05:36:39;2.50;;;0.98;;
57826;SDS011;43656;57.746;11.780;2023-07-28T05:39:05;3.58;;;1.05;;
57826;SDS011;43656;57.746;11.780;2023-07-28T05:41:30;3.58;;;1.45;;
57826;SDS011;43656;57.746;11.780;2023-07-28T05:43:55;2.08;;;1.10;;
57826;SDS011;43656;57.746;11.780;2023-07-28T05:46:21;2.17;;;1.20;;
57826;SDS011;43656;57.746;11.780;2023-07-28T05:48:46;2.78;;;1.17;;
57826;SDS011;43656;57.746;11.780;2023-07-28T05:51:12;3.15;;;1.00;;
57826;SDS011;43656;57.746;11.780;2023-07-28T05:53:37;2.58;;;1.30;;
57826;SDS011;43656;57.746;11.780;2023-07-28T05:56:03;3.92;;;1.10;;
57826;SDS011;43656;57.746;11.780;2023-07-28T05:58:28;4.43;;;1.10;;
57826;SDS011;43656;57.746;11.780;2023-07-28T06:00:54;2.53;;;1.20;;
57826;SDS011;43656;57.746;11.780;2023-07-28T06:03:19;2.58;;;1.15;;
57826;SDS011;43656;57.746;11.780;2023-07-28T06:05:45;2.45;;;1.20;;
57826;SDS011;43656;57.746;11.780;2023-07-28T06:08:10;2.63;;;1.20;;
57826;SDS011;43656;57.746;11.780;2023-07-28T06:10:36;3.65;;;1.33;;
57826;SDS011;43656;57.746;11.780;2023-07-28T06:13:02;3.15;;;1.80;;
57826;SDS011;43656;57.746;11.780;2023-07-28T06:15:27;3.20;;;1.60;;
57826;SDS011;43656;57.746;11.780;2023-07-28T06:17:53;1.77;;;1.00;;
57826;SDS011;43656;57.746;11.780;2023-07-28T06:20:18;1.42;;;0.90;;
57826;SDS011;43656;57.746;11.780;2023-07-28T06:22:44;3.80;;;1.10;;
57826;SDS011;43656;57.746;11.780;2023-07-28T06:25:09;3.90;;;1.17;;
57826;SDS011;43656;57.746;11.780;2023-07-28T06:27:35;3.30;;;1.00;;
57826;SDS011;43656;57.746;11.780;2023-07-28T06:30:01;3.33;;;1.30;;
57826;SDS011;43656;57.746;11.780;2023-07-28T06:32:27;1.98;;;1.00;;
57826;SDS011;43656;57.746;11.780;2023-07-28T06:34:53;3.88;;;1.02;;
57826;SDS011;43656;57.746;11.780;2023-07-28T06:37:19;2.47;;;1.00;;
57826;SDS011;43656;57.746;11.780;2023-07-28T06:39:44;1.70;;;0.80;;
57826;SDS011;43656;57.746;11.780;2023-07-28T06:42:10;3.90;;;1.10;;
57826;SDS011;43656;57.746;11.780;2023-07-28T06:44:36;3.70;;;1.10;;
57826;SDS011;43656;57.746;11.780;2023-07-28T06:47:02;5.05;;;1.23;;
57826;SDS011;43656;57.746;11.780;2023-07-28T06:49:28;2.42;;;0.90;;
57826;SDS011;43656;57.746;11.780;2023-07-28T06:51:53;2.80;;;1.08;;
57826;SDS011;43656;57.746;11.780;2023-07-28T06:54:19;2.80;;;1.70;;
57826;SDS011;43656;57.746;11.780;2023-07-28T06:56:44;3.17;;;1.58;;
57826;SDS011;43656;57.746;11.780;2023-07-28T06:59:10;3.75;;;1.90;;
57826;SDS011;43656;57.746;11.780;2023-07-28T07:01:36;4.57;;;1.80;;
57826;SDS011;43656;57.746;11.780;2023-07-28T07:04:02;2.60;;;1.80;;
57826;SDS011;43656;57.746;11.780;2023-07-28T07:06:29;3.78;;;1.40;;
57826;SDS011;43656;57.746;11.780;2023-07-28T07:08:55;2.20;;;1.30;;
57826;SDS011;43656;57.746;11.780;2023-07-28T07:11:20;2.17;;;1.30;;
57826;SDS011;43656;57.746;11.780;2023-07-28T07:13:46;4.10;;;1.20;;
57826;SDS011;43656;57.746;11.780;2023-07-28T07:16:15;2.90;;;1.10;;
57826;SDS011;43656;57.746;11.780;2023-07-28T07:18:42;1.98;;;1.30;;
57826;SDS011;43656;57.746;11.780;2023-07-28T07:21:08;5.70;;;1.52;;
57826;SDS011;43656;57.746;11.780;2023-07-28T07:23:34;4.10;;;1.10;;
57826;SDS011;43656;57.746;11.780;2023-07-28T07:25:59;4.78;;;1.42;;
57826;SDS011;43656;57.746;11.780;2023-07-28T07:28:25;3.25;;;1.25;;
57826;SDS011;43656;57.746;11.780;2023-07-28T07:30:50;2.80;;;1.15;;
57826;SDS011;43656;57.746;11.780;2023-07-28T07:33:15;2.95;;;1.17;;
57826;SDS011;43656;57.746;11.780;2023-07-28T07:35:41;3.17;;;1.33;;
57826;SDS011;43656;57.746;11.780;2023-07-28T07:38:06;3.92;;;1.10;;
57826;SDS011;43656;57.746;11.780;2023-07-28T07:40:34;3.30;;;1.23;;
57826;SDS011;43656;57.746;11.780;2023-07-28T07:43:00;3.85;;;1.20;;
57826;SDS011;43656;57.746;11.780;2023-07-28T07:45:27;2.55;;;1.15;;
57826;SDS011;43656;57.746;11.780;2023-07-28T07:47:52;1.83;;;1.00;;
57826;SDS011;43656;57.746;11.780;2023-07-28T07:50:18;2.70;;;1.20;;
57826;SDS011;43656;57.746;11.780;2023-07-28T07:52:43;2.17;;;1.02;;
57826;SDS011;43656;57.746;11.780;2023-07-28T07:55:09;3.20;;;1.00;;
57826;SDS011;43656;57.746;11.780;2023-07-28T07:57:38;1.90;;;1.05;;
57826;SDS011;43656;57.746;11.780;2023-07-28T08:00:04;1.85;;;1.20;;
57826;SDS011;43656;57.746;11.780;2023-07-28T08:02:32;1.75;;;1.27;;
57826;SDS011;43656;57.746;11.780;2023-07-28T08:04:57;1.92;;;1.30;;
57826;SDS011;43656;57.746;11.780;2023-07-28T08:07:22;2.08;;;1.25;;
57826;SDS011;43656;57.746;11.780;2023-07-28T08:09:48;1.65;;;1.20;;
57826;SDS011;43656;57.746;11.780;2023-07-28T08:12:14;2.17;;;1.13;;
57826;SDS011;43656;57.746;11.780;2023-07-28T08:14:40;3.35;;;1.50;;
57826;SDS011;43656;57.746;11.780;2023-07-28T08:17:06;4.10;;;1.40;;
57826;SDS011;43656;57.746;11.780;2023-07-28T08:19:31;2.53;;;1.33;;
57826;SDS011;43656;57.746;11.780;2023-07-28T08:21:56;1.83;;;1.20;;
57826;SDS011;43656;57.746;11.780;2023-07-28T08:24:22;1.77;;;1.33;;
57826;SDS011;43656;57.746;11.780;2023-07-28T08:26:48;2.30;;;1.30;;
57826;SDS011;43656;57.746;11.780;2023-07-28T08:29:14;3.85;;;1.35;;
57826;SDS011;43656;57.746;11.780;2023-07-28T08:31:40;1.50;;;1.20;;
57826;SDS011;43656;57.746;11.780;2023-07-28T08:34:06;1.70;;;1.30;;
57826;SDS011;43656;57.746;11.780;2023-07-28T08:36:33;2.95;;;1.30;;
57826;SDS011;43656;57.746;11.780;2023-07-28T08:38:58;2.28;;;1.40;;
57826;SDS011;43656;57.746;11.780;2023-07-28T08:41:24;3.45;;;1.23;;
57826;SDS011;43656;57.746;11.780;2023-07-28T08:43:50;2.05;;;1.30;;
57826;SDS011;43656;57.746;11.780;2023-07-28T08:46:17;2.25;;;1.55;;
57826;SDS011;43656;57.746;11.780;2023-07-28T08:48:43;1.90;;;1.23;;
57826;SDS011;43656;57.746;11.780;2023-07-28T08:51:09;3.10;;;1.35;;
57826;SDS011;43656;57.746;11.780;2023-07-28T08:53:37;1.58;;;1.10;;
57826;SDS011;43656;57.746;11.780;2023-07-28T08:56:03;2.42;;;1.50;;
57826;SDS011;43656;57.746;11.780;2023-07-28T08:58:30;3.10;;;1.55;;
57826;SDS011;43656;57.746;11.780;2023-07-28T09:00:55;2.15;;;1.30;;
57826;SDS011;43656;57.746;11.780;2023-07-28T09:03:25;2.03;;;1.40;;
57826;SDS011;43656;57.746;11.780;2023-07-28T09:05:53;1.55;;;1.30;;
57826;SDS011;43656;57.746;11.780;2023-07-28T09:08:24;3.15;;;1.40;;
57826;SDS011;43656;57.746;11.780;2023-07-28T09:10:49;2.20;;;1.40;;
57826;SDS011;43656;57.746;11.780;2023-07-28T09:13:15;2.42;;;1.40;;
57826;SDS011;43656;57.746;11.780;2023-07-28T09:15:42;1.70;;;1.30;;
57826;SDS011;43656;57.746;11.780;2023-07-28T09:18:11;2.75;;;1.20;;
57826;SDS011;43656;57.746;11.780;2023-07-28T09:20:38;1.75;;;1.20;;
57826;SDS011;43656;57.746;11.780;2023-07-28T09:23:09;2.33;;;1.40;;
57826;SDS011;43656;57.746;11.780;2023-07-28T09:25:36;2.22;;;1.38;;
57826;SDS011;43656;57.746;11.780;2023-07-28T09:28:03;3.03;;;1.40;;
57826;SDS011;43656;57.746;11.780;2023-07-28T09:30:42;1.50;;;1.25;;
57826;SDS011;43656;57.746;11.780;2023-07-28T09:33:09;1.40;;;1.30;;
57826;SDS011;43656;57.746;11.780;2023-07-28T09:35:35;3.45;;;1.38;;
57826;SDS011;43656;57.746;11.780;2023-07-28T09:38:12;2.50;;;1.38;;
57826;SDS011;43656;57.746;11.780;2023-07-28T09:40:39;1.83;;;1.30;;
57826;SDS011;43656;57.746;11.780;2023-07-28T09:43:06;3.05;;;1.85;;
57826;SDS011;43656;57.746;11.780;2023-07-28T09:45:32;2.22;;;1.50;;
57826;SDS011;43656;57.746;11.780;2023-07-28T09:47:59;3.17;;;1.35;;
57826;SDS011;43656;57.746;11.780;2023-07-28T09:50:27;1.90;;;1.20;;
57826;SDS011;43656;57.746;11.780;2023-07-28T09:52:58;3.00;;;1.27;;
57826;SDS011;43656;57.746;11.780;2023-07-28T09:55:26;3.17;;;1.42;;
57826;SDS011;43656;57.746;11.780;2023-07-28T09:57:54;4.38;;;1.25;;
57826;SDS011;43656;57.746;11.780;2023-07-28T10:00:21;4.25;;;1.27;;
57826;SDS011;43656;57.746;11.780;2023-07-28T10:02:47;2.40;;;1.13;;
57826;SDS011;43656;57.746;11.780;2023-07-28T10:05:13;1.95;;;1.27;;
57826;SDS011;43656;57.746;11.780;2023-07-28T10:07:41;2.50;;;1.30;;
57826;SDS011;43656;57.746;11.780;2023-07-28T10:10:09;1.98;;;1.08;;
57826;SDS011;43656;57.746;11.780;2023-07-28T10:12:55;2.17;;;1.30;;
57826;SDS011;43656;57.746;11.780;2023-07-28T10:15:27;1.98;;;1.30;;
57826;SDS011;43656;57.746;11.780;2023-07-28T10:17:54;2.75;;;1.30;;
57826;SDS011;43656;57.746;11.780;2023-07-28T10:23:13;2.25;;;1.20;;
57826;SDS011;43656;57.746;11.780;2023-07-28T10:25:40;2.40;;;1.35;;
57826;SDS011;43656;57.746;11.780;2023-07-28T10:28:07;2.42;;;0.98;;
57826;SDS011;43656;57.746;11.780;2023-07-28T10:30:56;2.65;;;1.17;;
57826;SDS011;43656;57.746;11.780;2023-07-28T10:33:34;1.80;;;1.02;;
57826;SDS011;43656;57.746;11.780;2023-07-28T10:41:59;2.85;;;1.40;;
57826;SDS011;43656;57.746;11.780;2023-07-28T10:44:34;3.45;;;1.20;;
57826;SDS011;43656;57.746;11.780;2023-07-28T10:47:00;3.47;;;1.33;;
57826;SDS011;43656;57.746;11.780;2023-07-28T10:49:26;2.85;;;1.05;;
57826;SDS011;43656;57.746;11.780;2023-07-28T10:51:52;1.63;;;1.13;;
57826;SDS011;43656;57.746;11.780;2023-07-28T10:54:18;2.38;;;1.10;;
57826;SDS011;43656;57.746;11.780;2023-07-28T10:56:45;1.98;;;1.17;;
57826;SDS011;43656;57.746;11.780;2023-07-28T10:59:12;2.63;;;1.13;;
57826;SDS011;43656;57.746;11.780;2023-07-28T11:01:38;3.50;;;1.10;;
57826;SDS011;43656;57.746;11.780;2023-07-28T11:04:11;2.80;;;1.02;;
57826;SDS011;43656;57.746;11.780;2023-07-28T11:06:40;4.10;;;1.20;;
57826;SDS011;43656;57.746;11.780;2023-07-28T11:09:07;1.70;;;1.00;;
57826;SDS011;43656;57.746;11.780;2023-07-28T11:11:35;4.07;;;1.35;;
57826;SDS011;43656;57.746;11.780;2023-07-28T11:14:02;1.92;;;0.98;;
57826;SDS011;43656;57.746;11.780;2023-07-28T11:16:32;3.28;;;1.20;;
57826;SDS011;43656;57.746;11.780;2023-07-28T11:19:02;3.30;;;1.80;;
57826;SDS011;43656;57.746;11.780;2023-07-28T11:21:29;3.67;;;1.65;;
57826;SDS011;43656;57.746;11.780;2023-07-28T11:23:55;2.05;;;1.30;;
57826;SDS011;43656;57.746;11.780;2023-07-28T11:26:21;3.30;;;1.42;;
57826;SDS011;43656;57.746;11.780;2023-07-28T11:28:47;3.72;;;1.52;;
57826;SDS011;43656;57.746;11.780;2023-07-28T11:31:13;3.80;;;1.60;;
57826;SDS011;43656;57.746;11.780;2023-07-28T11:33:39;3.63;;;1.58;;
57826;SDS011;43656;57.746;11.780;2023-07-28T11:36:05;2.33;;;1.70;;
57826;SDS011;43656;57.746;11.780;2023-07-28T11:38:31;2.20;;;1.30;;
57826;SDS011;43656;57.746;11.780;2023-07-28T11:40:58;6.00;;;1.60;;
57826;SDS011;43656;57.746;11.780;2023-07-28T11:43:25;4.60;;;1.40;;
57826;SDS011;43656;57.746;11.780;2023-07-28T11:45:51;3.40;;;1.30;;
57826;SDS011;43656;57.746;11.780;2023-07-28T11:48:16;2.63;;;1.10;;
57826;SDS011;43656;57.746;11.780;2023-07-28T11:50:43;2.83;;;1.10;;
57826;SDS011;43656;57.746;11.780;2023-07-28T11:53:09;2.33;;;1.00;;
57826;SDS011;43656;57.746;11.780;2023-07-28T11:55:38;2.92;;;1.10;;
57826;SDS011;43656;57.746;11.780;2023-07-28T11:58:05;2.05;;;1.10;;
57826;SDS011;43656;57.746;11.780;2023-07-28T12:00:31;3.42;;;1.10;;
57826;SDS011;43656;57.746;11.780;2023-07-28T12:03:11;2.47;;;1.20;;
57826;SDS011;43656;57.746;11.780;2023-07-28T12:05:38;2.30;;;1.00;;
57826;SDS011;43656;57.746;11.780;2023-07-28T12:08:05;3.20;;;1.02;;
57826;SDS011;43656;57.746;11.780;2023-07-28T12:10:33;1.60;;;1.20;;
57826;SDS011;43656;57.746;11.780;2023-07-28T12:13:06;1.70;;;1.00;;
57826;SDS011;43656;57.746;11.780;2023-07-28T12:15:32;1.90;;;1.00;;
57826;SDS011;43656;57.746;11.780;2023-07-28T12:18:07;2.45;;;0.85;;
57826;SDS011;43656;57.746;11.780;2023-07-28T12:20:34;2.70;;;1.35;;
57826;SDS011;43656;57.746;11.780;2023-07-28T12:23:12;2.97;;;1.38;;
57826;SDS011;43656;57.746;11.780;2023-07-28T12:25:47;2.90;;;1.23;;
57826;SDS011;43656;57.746;11.780;2023-07-28T12:28:13;3.17;;;1.10;;
57826;SDS011;43656;57.746;11.780;2023-07-28T12:30:39;2.67;;;1.30;;
57826;SDS011;43656;57.746;11.780;2023-07-28T12:33:05;1.90;;;1.13;;
57826;SDS011;43656;57.746;11.780;2023-07-28T12:35:31;1.25;;;1.10;;
57826;SDS011;43656;57.746;11.780;2023-07-28T12:37:59;1.98;;;1.10;;
57826;SDS011;43656;57.746;11.780;2023-07-28T12:40:30;1.25;;;1.10;;
57826;SDS011;43656;57.746;11.780;2023-07-28T12:42:56;2.17;;;1.13;;
57826;SDS011;43656;57.746;11.780;2023-07-28T12:45:23;1.77;;;1.02;;
57826;SDS011;43656;57.746;11.780;2023-07-28T12:47:50;2.72;;;1.20;;
57826;SDS011;43656;57.746;11.780;2023-07-28T12:50:22;3.15;;;1.10;;
57826;SDS011;43656;57.746;11.780;2023-07-28T12:52:48;3.25;;;1.30;;
57826;SDS011;43656;57.746;11.780;2023-07-28T12:55:14;2.28;;;1.30;;
57826;SDS011;43656;57.746;11.780;2023-07-28T12:57:40;3.45;;;1.27;;
57826;SDS011;43656;57.746;11.780;2023-07-28T13:00:06;1.90;;;1.10;;
57826;SDS011;43656;57.746;11.780;2023-07-28T13:02:38;2.08;;;1.20;;
57826;SDS011;43656;57.746;11.780;2023-07-28T13:05:06;1.58;;;1.00;;
57826;SDS011;43656;57.746;11.780;2023-07-28T13:07:32;2.70;;;1.20;;
57826;SDS011;43656;57.746;11.780;2023-07-28T13:09:57;3.05;;;1.23;;
57826;SDS011;43656;57.746;11.780;2023-07-28T13:12:23;2.40;;;1.30;;
57826;SDS011;43656;57.746;11.780;2023-07-28T13:14:48;2.03;;;1.13;;
57826;SDS011;43656;57.746;11.780;2023-07-28T13:17:13;2.72;;;1.38;;
57826;SDS011;43656;57.746;11.780;2023-07-28T13:19:39;2.53;;;1.10;;
57826;SDS011;43656;57.746;11.780;2023-07-28T13:22:05;1.77;;;1.10;;
57826;SDS011;43656;57.746;11.780;2023-07-28T13:24:31;1.52;;;1.17;;
57826;SDS011;43656;57.746;11.780;2023-07-28T13:26:57;2.67;;;1.20;;
57826;SDS011;43656;57.746;11.780;2023-07-28T13:29:22;2.35;;;1.27;;
57826;SDS011;43656;57.746;11.780;2023-07-28T13:31:47;2.17;;;1.20;;
57826;SDS011;43656;57.746;11.780;2023-07-28T13:34:13;1.10;;;1.00;;
57826;SDS011;43656;57.746;11.780;2023-07-28T13:36:38;2.33;;;1.17;;
57826;SDS011;43656;57.746;11.780;2023-07-28T13:39:04;2.90;;;1.48;;
57826;SDS011;43656;57.746;11.780;2023-07-28T13:41:31;2.45;;;1.33;;
57826;SDS011;43656;57.746;11.780;2023-07-28T13:43:56;2.33;;;1.27;;
57826;SDS011;43656;57.746;11.780;2023-07-28T13:46:21;2.30;;;1.40;;
57826;SDS011;43656;57.746;11.780;2023-07-28T13:48:47;1.70;;;1.10;;
57826;SDS011;43656;57.746;11.780;2023-07-28T13:51:12;2.25;;;1.20;;
57826;SDS011;43656;57.746;11.780;2023-07-28T13:53:38;2.33;;;1.02;;
57826;SDS011;43656;57.746;11.780;2023-07-28T13:56:03;2.17;;;1.20;;
57826;SDS011;43656;57.746;11.780;2023-07-28T13:58:29;2.10;;;1.10;;
57826;SDS011;43656;57.746;11.780;2023-07-28T14:00:55;1.85;;;1.05;;
57826;SDS011;43656;57.746;11.780;2023-07-28T14:03:20;3.72;;;1.10;;
57826;SDS011;43656;57.746;11.780;2023-07-28T14:05:46;3.38;;;1.20;;
57826;SDS011;43656;57.746;11.780;2023-07-28T14:08:12;2.40;;;1.05;;
57826;SDS011;43656;57.746;11.780;2023-07-28T14:10:37;2.03;;;1.13;;
57826;SDS011;43656;57.746;11.780;2023-07-28T14:13:03;2.67;;;1.50;;
57826;SDS011;43656;57.746;11.780;2023-07-28T14:15:29;2.13;;;1.40;;
57826;SDS011;43656;57.746;11.780;2023-07-28T14:17:54;1.60;;;1.10;;
57826;SDS011;43656;57.746;11.780;2023-07-28T14:20:19;1.60;;;1.00;;
57826;SDS011;43656;57.746;11.780;2023-07-28T14:22:45;1.83;;;1.10;;
57826;SDS011;43656;57.746;11.780;2023-07-28T14:25:10;1.77;;;1.10;;
57826;SDS011;43656;57.746;11.780;2023-07-28T14:27:37;2.28;;;1.30;;
57826;SDS011;43656;57.746;11.780;2023-07-28T14:30:04;2.30;;;1.00;;
57826;SDS011;43656;57.746;11.780;2023-07-28T14:32:30;2.55;;;1.23;;
57826;SDS011;43656;57.746;11.780;2023-07-28T14:34:55;2.45;;;1.30;;
57826;SDS011;43656;57.746;11.780;2023-07-28T14:37:21;2.22;;;1.20;;
57826;SDS011;43656;57.746;11.780;2023-07-28T14:39:47;1.75;;;1.50;;
57826;SDS011;43656;57.746;11.780;2023-07-28T14:42:12;2.08;;;1.30;;
57826;SDS011;43656;57.746;11.780;2023-07-28T14:44:37;1.27;;;1.17;;